Middletown, Vermont
Current Conditions -  °F | °C
As of 3:54 PM on Thursday 20 Nov 2014 (Local Time) from KVSF Reporting Station
Overcast Overcast  
Wind Chill: 23°   Ceiling: 7000
Heat Index: 32°   Visibility: 10mi
Dew Point: 16°   Wind: 12mph
Humidity: 52%   Direction: 270°W
Pressure: 29.8"   Gusts: 20mph
Location:  43.2811°N, 72.6352°W
Report Text: KVSF 202054Z AUTO 27010G17KT 10SM OVC070 00/M09 A2980 RMK AO2 SLP102 T00001089 53015
Loading
Personal Weather Stations






























Interactive Weather Map New forecast layout! Learn more

10-Day Weather Forecast

Advertisements
Track Severe Weather on mobile